sensor_id;sensor_type;location;lat;lon;timestamp;pressure;altitude;pressure_sealevel;temperature;humidity
59170;BME280;52474;52.236;5.114;2022-11-20T00:01:10;101467.03;;;-4.35;100.00
59170;BME280;52474;52.236;5.114;2022-11-20T00:03:37;101472.94;;;-4.28;100.00
59170;BME280;52474;52.236;5.114;2022-11-20T00:06:05;101474.75;;;-4.34;100.00
59170;BME280;52474;52.236;5.114;2022-11-20T00:08:31;101478.16;;;-4.32;100.00
59170;BME280;52474;52.236;5.114;2022-11-20T00:10:57;101472.22;;;-4.37;100.00
59170;BME280;52474;52.236;5.114;2022-11-20T00:13:23;101481.59;;;-4.31;100.00
59170;BME280;52474;52.236;5.114;2022-11-20T00:15:48;101460.28;;;-4.45;100.00
59170;BME280;52474;52.236;5.114;2022-11-20T00:18:14;101451.75;;;-4.52;100.00
59170;BME280;52474;52.236;5.114;2022-11-20T00:20:40;101475.84;;;-4.50;100.00
59170;BME280;52474;52.236;5.114;2022-11-20T00:23:06;101469.78;;;-4.47;100.00
59170;BME280;52474;52.236;5.114;2022-11-20T00:25:34;101468.03;;;-4.45;100.00
59170;BME280;52474;52.236;5.114;2022-11-20T00:28:00;101468.84;;;-4.43;100.00
59170;BME280;52474;52.236;5.114;2022-11-20T00:30:25;101458.44;;;-4.39;100.00
59170;BME280;52474;52.236;5.114;2022-11-20T00:32:51;101457.75;;;-4.50;100.00
59170;BME280;52474;52.236;5.114;2022-11-20T00:35:17;101456.00;;;-4.49;100.00
59170;BME280;52474;52.236;5.114;2022-11-20T00:37:42;101446.63;;;-4.55;100.00
59170;BME280;52474;52.236;5.114;2022-11-20T00:40:08;101469.63;;;-4.38;100.00
59170;BME280;52474;52.236;5.114;2022-11-20T00:42:34;101465.41;;;-4.44;100.00
59170;BME280;52474;52.236;5.114;2022-11-20T00:45:00;101416.56;;;-4.64;100.00
59170;BME280;52474;52.236;5.114;2022-11-20T00:47:26;101451.47;;;-4.34;100.00
59170;BME280;52474;52.236;5.114;2022-11-20T00:49:51;101445.38;;;-4.28;100.00
59170;BME280;52474;52.236;5.114;2022-11-20T00:52:17;101448.78;;;-4.26;100.00
59170;BME280;52474;52.236;5.114;2022-11-20T00:54:43;101449.53;;;-4.19;100.00
59170;BME280;52474;52.236;5.114;2022-11-20T00:57:09;101428.97;;;-4.27;100.00
59170;BME280;52474;52.236;5.114;2022-11-20T00:59:35;101439.31;;;-4.25;100.00
59170;BME280;52474;52.236;5.114;2022-11-20T01:02:00;101446.25;;;-4.29;100.00
59170;BME280;52474;52.236;5.114;2022-11-20T01:04:26;101415.38;;;-4.41;100.00
59170;BME280;52474;52.236;5.114;2022-11-20T01:06:52;101455.63;;;-4.23;100.00
59170;BME280;52474;52.236;5.114;2022-11-20T01:09:17;101458.31;;;-4.29;100.00
59170;BME280;52474;52.236;5.114;2022-11-20T01:11:44;101430.09;;;-4.45;100.00
59170;BME280;52474;52.236;5.114;2022-11-20T01:14:14;101453.31;;;-4.42;100.00
59170;BME280;52474;52.236;5.114;2022-11-20T01:16:43;101411.34;;;-4.59;100.00
59170;BME280;52474;52.236;5.114;2022-11-20T01:19:15;101443.09;;;-4.49;100.00
59170;BME280;52474;52.236;5.114;2022-11-20T01:21:43;101434.50;;;-4.51;100.00
59170;BME280;52474;52.236;5.114;2022-11-20T01:24:14;101449.03;;;-4.44;100.00
59170;BME280;52474;52.236;5.114;2022-11-20T01:26:41;101443.19;;;-4.57;100.00
59170;BME280;52474;52.236;5.114;2022-11-20T01:29:14;101425.25;;;-4.71;100.00
59170;BME280;52474;52.236;5.114;2022-11-20T01:31:41;101412.25;;;-4.63;100.00
59170;BME280;52474;52.236;5.114;2022-11-20T01:34:12;101425.06;;;-4.56;100.00
59170;BME280;52474;52.236;5.114;2022-11-20T01:36:39;101429.31;;;-4.50;100.00
59170;BME280;52474;52.236;5.114;2022-11-20T01:39:07;101434.50;;;-4.53;100.00
59170;BME280;52474;52.236;5.114;2022-11-20T01:41:35;101427.69;;;-4.59;100.00
59170;BME280;52474;52.236;5.114;2022-11-20T01:44:22;101419.88;;;-4.54;100.00
59170;BME280;52474;52.236;5.114;2022-11-20T01:47:08;101409.63;;;-4.60;100.00
59170;BME280;52474;52.236;5.114;2022-11-20T01:49:42;101432.84;;;-4.59;100.00
59170;BME280;52474;52.236;5.114;2022-11-20T01:52:23;101431.22;;;-4.66;100.00
59170;BME280;52474;52.236;5.114;2022-11-20T01:54:56;101444.03;;;-4.57;100.00
59170;BME280;52474;52.236;5.114;2022-11-20T01:57:25;101447.53;;;-4.61;100.00
59170;BME280;52474;52.236;5.114;2022-11-20T02:00:03;101423.47;;;-4.66;100.00
59170;BME280;52474;52.236;5.114;2022-11-20T02:02:39;101405.47;;;-4.72;100.00
59170;BME280;52474;52.236;5.114;2022-11-20T02:07:46;101435.50;;;-4.63;100.00
59170;BME280;52474;52.236;5.114;2022-11-20T02:10:12;101428.75;;;-4.73;100.00
59170;BME280;52474;52.236;5.114;2022-11-20T02:12:38;101403.91;;;-4.85;100.00
59170;BME280;52474;52.236;5.114;2022-11-20T02:15:22;101415.88;;;-4.78;100.00
59170;BME280;52474;52.236;5.114;2022-11-20T02:17:48;101412.44;;;-4.80;100.00
59170;BME280;52474;52.236;5.114;2022-11-20T02:20:14;101396.16;;;-4.84;100.00
59170;BME280;52474;52.236;5.114;2022-11-20T02:22:51;101405.59;;;-4.80;100.00
59170;BME280;52474;52.236;5.114;2022-11-20T02:25:19;101387.63;;;-4.90;100.00
59170;BME280;52474;52.236;5.114;2022-11-20T02:27:45;101396.25;;;-4.91;100.00
59170;BME280;52474;52.236;5.114;2022-11-20T02:30:11;101390.28;;;-4.97;100.00
59170;BME280;52474;52.236;5.114;2022-11-20T02:32:37;101389.41;;;-4.94;100.00
59170;BME280;52474;52.236;5.114;2022-11-20T02:37:48;101394.63;;;-4.99;100.00
59170;BME280;52474;52.236;5.114;2022-11-20T02:40:15;101404.84;;;-4.89;100.00
59170;BME280;52474;52.236;5.114;2022-11-20T02:42:41;101386.91;;;-5.02;100.00
59170;BME280;52474;52.236;5.114;2022-11-20T02:45:07;101382.66;;;-5.07;100.00
59170;BME280;52474;52.236;5.114;2022-11-20T02:47:33;101382.69;;;-5.10;100.00
59170;BME280;52474;52.236;5.114;2022-11-20T02:49:59;101374.16;;;-5.17;100.00
59170;BME280;52474;52.236;5.114;2022-11-20T02:52:25;101400.72;;;-5.07;100.00
59170;BME280;52474;52.236;5.114;2022-11-20T02:54:51;101401.53;;;-5.02;100.00
59170;BME280;52474;52.236;5.114;2022-11-20T02:57:17;101401.56;;;-5.04;100.00
59170;BME280;52474;52.236;5.114;2022-11-20T02:59:42;101386.13;;;-5.08;100.00
59170;BME280;52474;52.236;5.114;2022-11-20T03:02:08;101396.22;;;-4.90;100.00
59170;BME280;52474;52.236;5.114;2022-11-20T03:04:34;101387.78;;;-5.03;100.00
59170;BME280;52474;52.236;5.114;2022-11-20T03:06:59;101384.22;;;-4.94;100.00
59170;BME280;52474;52.236;5.114;2022-11-20T03:09:25;101390.28;;;-4.97;100.00
59170;BME280;52474;52.236;5.114;2022-11-20T03:11:51;101373.22;;;-5.07;100.00
59170;BME280;52474;52.236;5.114;2022-11-20T03:14:17;101350.91;;;-5.14;100.00
59170;BME280;52474;52.236;5.114;2022-11-20T03:16:42;101378.97;;;-4.88;100.00
59170;BME280;52474;52.236;5.114;2022-11-20T03:19:08;101344.06;;;-5.18;100.00
59170;BME280;52474;52.236;5.114;2022-11-20T03:21:34;101374.81;;;-4.98;100.00
59170;BME280;52474;52.236;5.114;2022-11-20T03:24:00;101368.75;;;-4.96;100.00
59170;BME280;52474;52.236;5.114;2022-11-20T03:26:26;101370.47;;;-4.94;100.00
59170;BME280;52474;52.236;5.114;2022-11-20T03:28:54;101373.13;;;-5.01;100.00
59170;BME280;52474;52.236;5.114;2022-11-20T03:31:26;101352.66;;;-5.16;100.00
59170;BME280;52474;52.236;5.114;2022-11-20T03:33:52;101373.34;;;-5.19;100.00
59170;BME280;52474;52.236;5.114;2022-11-20T03:36:19;101382.94;;;-5.30;100.00
59170;BME280;52474;52.236;5.114;2022-11-20T03:38:45;101360.69;;;-5.41;100.00
59170;BME280;52474;52.236;5.114;2022-11-20T03:41:20;101311.91;;;-5.65;100.00
59170;BME280;52474;52.236;5.114;2022-11-20T03:43:50;101356.31;;;-5.35;100.00
59170;BME280;52474;52.236;5.114;2022-11-20T03:46:17;101346.88;;;-5.36;100.00
59170;BME280;52474;52.236;5.114;2022-11-20T03:48:43;101347.63;;;-5.28;100.00
59170;BME280;52474;52.236;5.114;2022-11-20T03:53:34;101359.66;;;-5.24;100.00
59170;BME280;52474;52.236;5.114;2022-11-20T03:56:00;101360.47;;;-5.22;100.00
59170;BME280;52474;52.236;5.114;2022-11-20T03:58:25;101345.09;;;-5.33;100.00
59170;BME280;52474;52.236;5.114;2022-11-20T04:00:51;101348.47;;;-5.26;100.00
59170;BME280;52474;52.236;5.114;2022-11-20T04:03:17;101346.88;;;-5.38;100.00
59170;BME280;52474;52.236;5.114;2022-11-20T04:05:42;101343.38;;;-5.32;100.00
59170;BME280;52474;52.236;5.114;2022-11-20T04:08:08;101342.50;;;-5.31;100.00
59170;BME280;52474;52.236;5.114;2022-11-20T04:10:34;101333.88;;;-5.32;100.00
59170;BME280;52474;52.236;5.114;2022-11-20T04:12:59;101331.41;;;-5.38;100.00
59170;BME280;52474;52.236;5.114;2022-11-20T04:15:25;101327.03;;;-5.33;100.00
59170;BME280;52474;52.236;5.114;2022-11-20T04:17:50;101326.16;;;-5.32;100.00
59170;BME280;52474;52.236;5.114;2022-11-20T04:20:16;101324.34;;;-5.24;100.00
59170;BME280;52474;52.236;5.114;2022-11-20T04:22:42;101326.97;;;-5.28;100.00
59170;BME280;52474;52.236;5.114;2022-11-20T04:25:08;101306.44;;;-5.39;100.00
59170;BME280;52474;52.236;5.114;2022-11-20T04:27:34;101306.38;;;-5.33;100.00
59170;BME280;52474;52.236;5.114;2022-11-20T04:29:59;101321.75;;;-5.24;100.00
59170;BME280;52474;52.236;5.114;2022-11-20T04:32:25;101312.28;;;-5.25;100.00
59170;BME280;52474;52.236;5.114;2022-11-20T04:34:50;101322.72;;;-5.32;100.00
59170;BME280;52474;52.236;5.114;2022-11-20T04:37:16;101320.97;;;-5.30;100.00
59170;BME280;52474;52.236;5.114;2022-11-20T04:39:42;101303.09;;;-5.47;100.00
59170;BME280;52474;52.236;5.114;2022-11-20T04:42:08;101330.56;;;-5.40;100.00
59170;BME280;52474;52.236;5.114;2022-11-20T04:44:53;101336.56;;;-5.40;100.00
59170;BME280;52474;52.236;5.114;2022-11-20T04:47:20;101314.22;;;-5.42;100.00
59170;BME280;52474;52.236;5.114;2022-11-20T04:49:45;101338.22;;;-5.32;100.00
59170;BME280;52474;52.236;5.114;2022-11-20T04:52:11;101327.03;;;-5.34;100.00
59170;BME280;52474;52.236;5.114;2022-11-20T04:54:37;101309.00;;;-5.37;100.00
59170;BME280;52474;52.236;5.114;2022-11-20T04:57:03;101277.50;;;-5.63;100.00
59170;BME280;52474;52.236;5.114;2022-11-20T04:59:28;101320.22;;;-5.38;100.00
59170;BME280;52474;52.236;5.114;2022-11-20T05:01:54;101314.16;;;-5.36;100.00
59170;BME280;52474;52.236;5.114;2022-11-20T05:04:20;101308.16;;;-5.40;100.00
59170;BME280;52474;52.236;5.114;2022-11-20T05:06:45;101279.03;;;-5.46;100.00
59170;BME280;52474;52.236;5.114;2022-11-20T05:09:12;101280.91;;;-5.61;100.00
59170;BME280;52474;52.236;5.114;2022-11-20T05:11:38;101289.41;;;-5.52;100.00
59170;BME280;52474;52.236;5.114;2022-11-20T05:14:04;101291.06;;;-5.47;100.00
59170;BME280;52474;52.236;5.114;2022-11-20T05:16:29;101261.91;;;-5.55;100.00
59170;BME280;52474;52.236;5.114;2022-11-20T05:18:55;101269.59;;;-5.49;100.00
59170;BME280;52474;52.236;5.114;2022-11-20T05:21:21;101240.53;;;-5.65;100.00
59170;BME280;52474;52.236;5.114;2022-11-20T05:23:47;101275.59;;;-5.48;100.00
59170;BME280;52474;52.236;5.114;2022-11-20T05:26:19;101271.28;;;-5.48;100.00
59170;BME280;52474;52.236;5.114;2022-11-20T05:28:47;101253.28;;;-5.52;100.00
59170;BME280;52474;52.236;5.114;2022-11-20T05:31:16;101265.28;;;-5.48;100.00
59170;BME280;52474;52.236;5.114;2022-11-20T05:33:43;101279.88;;;-5.47;100.00
59170;BME280;52474;52.236;5.114;2022-11-20T05:36:11;101278.22;;;-5.53;100.00
59170;BME280;52474;52.236;5.114;2022-11-20T05:38:37;101285.13;;;-5.53;100.00
59170;BME280;52474;52.236;5.114;2022-11-20T05:43:32;101292.13;;;-5.63;100.00
59170;BME280;52474;52.236;5.114;2022-11-20T05:45:58;101285.28;;;-5.69;100.00
59170;BME280;52474;52.236;5.114;2022-11-20T05:48:24;101290.38;;;-5.63;100.00
59170;BME280;52474;52.236;5.114;2022-11-20T05:50:50;101252.72;;;-5.79;100.00
59170;BME280;52474;52.236;5.114;2022-11-20T05:53:16;101286.06;;;-5.62;100.00
59170;BME280;52474;52.236;5.114;2022-11-20T05:55:42;101290.34;;;-5.58;100.00
59170;BME280;52474;52.236;5.114;2022-11-20T05:58:07;101273.31;;;-5.73;100.00
59170;BME280;52474;52.236;5.114;2022-11-20T06:00:33;101303.19;;;-5.55;100.00
59170;BME280;52474;52.236;5.114;2022-11-20T06:02:58;101298.13;;;-5.64;100.00
59170;BME280;52474;52.236;5.114;2022-11-20T06:05:24;101300.72;;;-5.63;100.00
59170;BME280;52474;52.236;5.114;2022-11-20T06:07:50;101308.44;;;-5.61;100.00
59170;BME280;52474;52.236;5.114;2022-11-20T06:10:15;101276.78;;;-5.75;100.00
59170;BME280;52474;52.236;5.114;2022-11-20T06:12:41;101286.13;;;-5.65;100.00
59170;BME280;52474;52.236;5.114;2022-11-20T06:15:07;101304.97;;;-5.58;100.00
59170;BME280;52474;52.236;5.114;2022-11-20T06:17:33;101298.78;;;-5.44;100.00
59170;BME280;52474;52.236;5.114;2022-11-20T06:19:59;101275.75;;;-5.64;100.00
59170;BME280;52474;52.236;5.114;2022-11-20T06:22:24;101273.94;;;-5.54;100.00
59170;BME280;52474;52.236;5.114;2022-11-20T06:24:50;101296.06;;;-5.33;100.00
59170;BME280;52474;52.236;5.114;2022-11-20T06:27:16;101272.88;;;-5.37;100.00
59170;BME280;52474;52.236;5.114;2022-11-20T06:29:42;101306.28;;;-5.24;100.00
59170;BME280;52474;52.236;5.114;2022-11-20T06:32:07;101273.03;;;-5.50;100.00
59170;BME280;52474;52.236;5.114;2022-11-20T06:34:33;101285.84;;;-5.42;100.00
59170;BME280;52474;52.236;5.114;2022-11-20T06:36:59;101280.66;;;-5.42;100.00
59170;BME280;52474;52.236;5.114;2022-11-20T06:39:24;101301.34;;;-5.44;100.00
59170;BME280;52474;52.236;5.114;2022-11-20T06:41:50;101297.84;;;-5.38;100.00
59170;BME280;52474;52.236;5.114;2022-11-20T06:44:16;101276.34;;;-5.42;100.00
59170;BME280;52474;52.236;5.114;2022-11-20T06:46:41;101281.41;;;-5.31;100.00
59170;BME280;52474;52.236;5.114;2022-11-20T06:49:07;101292.53;;;-5.27;100.00
59170;BME280;52474;52.236;5.114;2022-11-20T06:51:33;101289.94;;;-5.27;100.00
59170;BME280;52474;52.236;5.114;2022-11-20T06:53:58;101266.94;;;-5.44;100.00
59170;BME280;52474;52.236;5.114;2022-11-20T06:56:26;101287.34;;;-5.24;100.00
59170;BME280;52474;52.236;5.114;2022-11-20T06:58:52;101274.41;;;-5.21;100.00
59170;BME280;52474;52.236;5.114;2022-11-20T07:01:18;101274.41;;;-5.21;100.00
59170;BME280;52474;52.236;5.114;2022-11-20T07:03:44;101274.28;;;-5.15;100.00
59170;BME280;52474;52.236;5.114;2022-11-20T07:06:10;101270.06;;;-5.19;100.00
59170;BME280;52474;52.236;5.114;2022-11-20T07:08:36;101280.31;;;-5.14;100.00
59170;BME280;52474;52.236;5.114;2022-11-20T07:11:05;101258.97;;;-5.26;100.00
59170;BME280;52474;52.236;5.114;2022-11-20T07:13:31;101243.53;;;-5.30;100.00
59170;BME280;52474;52.236;5.114;2022-11-20T07:16:05;101259.69;;;-5.18;100.00
59170;BME280;52474;52.236;5.114;2022-11-20T07:18:31;101264.72;;;-5.07;100.00
59170;BME280;52474;52.236;5.114;2022-11-20T07:21:01;101262.88;;;-4.97;100.00
59170;BME280;52474;52.236;5.114;2022-11-20T07:23:27;101260.25;;;-4.96;100.00
59170;BME280;52474;52.236;5.114;2022-11-20T07:25:54;101262.72;;;-4.86;100.00
59170;BME280;52474;52.236;5.114;2022-11-20T07:28:20;101246.38;;;-4.90;100.00
59170;BME280;52474;52.236;5.114;2022-11-20T07:30:54;101262.53;;;-4.74;100.00
59170;BME280;52474;52.236;5.114;2022-11-20T07:33:20;101269.22;;;-4.62;100.00
59170;BME280;52474;52.236;5.114;2022-11-20T07:35:46;101255.25;;;-4.50;100.00
59170;BME280;52474;52.236;5.114;2022-11-20T07:38:12;101262.84;;;-4.40;100.00
59170;BME280;52474;52.236;5.114;2022-11-20T07:40:37;101266.00;;;-4.24;100.00
59170;BME280;52474;52.236;5.114;2022-11-20T07:43:03;101253.06;;;-4.24;100.00
59170;BME280;52474;52.236;5.114;2022-11-20T07:45:28;101234.94;;;-4.22;100.00
59170;BME280;52474;52.236;5.114;2022-11-20T07:47:54;101276.56;;;-3.88;100.00
59170;BME280;52474;52.236;5.114;2022-11-20T07:50:20;101264.47;;;-3.86;100.00
59170;BME280;52474;52.236;5.114;2022-11-20T07:52:46;101245.53;;;-3.90;100.00
59170;BME280;52474;52.236;5.114;2022-11-20T07:55:12;101242.81;;;-3.82;100.00
59170;BME280;52474;52.236;5.114;2022-11-20T07:57:38;101263.31;;;-3.71;100.00
59170;BME280;52474;52.236;5.114;2022-11-20T08:00:05;101228.03;;;-3.77;100.00
59170;BME280;52474;52.236;5.114;2022-11-20T08:02:38;101232.25;;;-3.71;100.00
59170;BME280;52474;52.236;5.114;2022-11-20T08:05:10;101232.75;;;-3.54;100.00
59170;BME280;52474;52.236;5.114;2022-11-20T08:07:41;101247.94;;;-3.37;100.00
59170;BME280;52474;52.236;5.114;2022-11-20T08:10:10;101239.09;;;-3.27;100.00
59170;BME280;52474;52.236;5.114;2022-11-20T08:12:36;101238.91;;;-3.19;100.00
59170;BME280;52474;52.236;5.114;2022-11-20T08:15:26;101234.50;;;-3.14;100.00
59170;BME280;52474;52.236;5.114;2022-11-20T08:17:59;101220.50;;;-3.07;100.00
59170;BME280;52474;52.236;5.114;2022-11-20T08:20:24;101212.00;;;-3.12;100.00
59170;BME280;52474;52.236;5.114;2022-11-20T08:22:50;101234.00;;;-2.92;100.00
59170;BME280;52474;52.236;5.114;2022-11-20T08:25:16;101231.13;;;-2.80;100.00
59170;BME280;52474;52.236;5.114;2022-11-20T08:27:41;101220.56;;;-2.72;100.00
59170;BME280;52474;52.236;5.114;2022-11-20T08:30:07;101231.50;;;-2.60;100.00
59170;BME280;52474;52.236;5.114;2022-11-20T08:32:33;101228.88;;;-2.58;100.00
59170;BME280;52474;52.236;5.114;2022-11-20T08:35:01;101221.97;;;-2.59;100.00
59170;BME280;52474;52.236;5.114;2022-11-20T08:37:27;101229.53;;;-2.51;100.00
59170;BME280;52474;52.236;5.114;2022-11-20T08:39:52;101177.50;;;-2.78;100.00
59170;BME280;52474;52.236;5.114;2022-11-20T08:42:19;101222.56;;;-2.48;100.00
59170;BME280;52474;52.236;5.114;2022-11-20T08:44:44;101217.47;;;-2.52;100.00
59170;BME280;52474;52.236;5.114;2022-11-20T08:47:10;101219.91;;;-2.46;100.00
59170;BME280;52474;52.236;5.114;2022-11-20T08:49:36;101232.53;;;-2.32;100.00
59170;BME280;52474;52.236;5.114;2022-11-20T08:52:01;101232.41;;;-2.28;100.00
59170;BME280;52474;52.236;5.114;2022-11-20T08:54:27;101241.91;;;-2.27;100.00
59170;BME280;52474;52.236;5.114;2022-11-20T08:56:52;101230.75;;;-2.30;100.00
59170;BME280;52474;52.236;5.114;2022-11-20T08:59:18;101239.06;;;-2.18;100.00
59170;BME280;52474;52.236;5.114;2022-11-20T09:01:44;101227.97;;;-2.23;100.00
59170;BME280;52474;52.236;5.114;2022-11-20T09:04:10;101234.25;;;-1.99;100.00
59170;BME280;52474;52.236;5.114;2022-11-20T09:06:37;101216.94;;;-1.98;100.00
59170;BME280;52474;52.236;5.114;2022-11-20T09:09:02;101224.16;;;-1.78;100.00
59170;BME280;52474;52.236;5.114;2022-11-20T09:11:28;101223.19;;;-1.74;100.00
59170;BME280;52474;52.236;5.114;2022-11-20T09:13:56;101211.50;;;-1.59;100.00
59170;BME280;52474;52.236;5.114;2022-11-20T09:16:21;101213.56;;;-1.41;100.00
59170;BME280;52474;52.236;5.114;2022-11-20T09:18:49;101199.34;;;-1.29;100.00
59170;BME280;52474;52.236;5.114;2022-11-20T09:21:16;101195.06;;;-1.03;100.00
59170;BME280;52474;52.236;5.114;2022-11-20T09:23:42;101193.03;;;-0.94;100.00
59170;BME280;52474;52.236;5.114;2022-11-20T09:26:12;101176.09;;;-0.79;100.00
59170;BME280;52474;52.236;5.114;2022-11-20T09:28:38;101176.63;;;-0.69;100.00
59170;BME280;52474;52.236;5.114;2022-11-20T09:31:08;101177.78;;;-0.51;100.00
59170;BME280;52474;52.236;5.114;2022-11-20T09:33:33;101170.38;;;-0.37;100.00
59170;BME280;52474;52.236;5.114;2022-11-20T09:36:00;101149.19;;;-0.28;100.00
59170;BME280;52474;52.236;5.114;2022-11-20T09:38:25;101161.25;;;0.00;100.00
59170;BME280;52474;52.236;5.114;2022-11-20T09:40:57;101151.97;;;-0.07;100.00
59170;BME280;52474;52.236;5.114;2022-11-20T09:43:32;101173.31;;;0.26;100.00
59170;BME280;52474;52.236;5.114;2022-11-20T09:46:19;101156.38;;;0.38;100.00
59170;BME280;52474;52.236;5.114;2022-11-20T09:49:11;101162.41;;;0.38;100.00
59170;BME280;52474;52.236;5.114;2022-11-20T09:51:58;101122.03;;;0.50;100.00
59170;BME280;52474;52.236;5.114;2022-11-20T09:54:36;101140.75;;;0.82;100.00
59170;BME280;52474;52.236;5.114;2022-11-20T09:57:10;101128.56;;;0.60;100.00
59170;BME280;52474;52.236;5.114;2022-11-20T10:00:06;101141.47;;;0.85;100.00
59170;BME280;52474;52.236;5.114;2022-11-20T10:03:06;101148.66;;;1.01;100.00
59170;BME280;52474;52.236;5.114;2022-11-20T10:05:45;101137.50;;;1.19;100.00
59170;BME280;52474;52.236;5.114;2022-11-20T10:10:53;101137.97;;;0.87;100.00
59170;BME280;52474;52.236;5.114;2022-11-20T10:14:01;101132.31;;;0.97;100.00
59170;BME280;52474;52.236;5.114;2022-11-20T10:16:35;101124.91;;;1.09;100.00
59170;BME280;52474;52.236;5.114;2022-11-20T10:19:46;101116.13;;;1.71;100.00
59170;BME280;52474;52.236;5.114;2022-11-20T10:25:20;101105.53;;;1.55;100.00
59170;BME280;52474;52.236;5.114;2022-11-20T10:28:03;101094.41;;;1.50;100.00
59170;BME280;52474;52.236;5.114;2022-11-20T10:30:37;101077.50;;;1.19;100.00
59170;BME280;52474;52.236;5.114;2022-11-20T10:33:25;101082.84;;;1.16;100.00
59170;BME280;52474;52.236;5.114;2022-11-20T10:39:04;101069.78;;;0.53;100.00
59170;BME280;52474;52.236;5.114;2022-11-20T10:41:41;101076.78;;;0.51;100.00
59170;BME280;52474;52.236;5.114;2022-11-20T10:44:27;101067.00;;;0.58;100.00
59170;BME280;52474;52.236;5.114;2022-11-20T10:47:15;101061.72;;;0.59;100.00
59170;BME280;52474;52.236;5.114;2022-11-20T10:49:42;101066.06;;;0.59;100.00
59170;BME280;52474;52.236;5.114;2022-11-20T10:57:55;101045.44;;;0.32;100.00
59170;BME280;52474;52.236;5.114;2022-11-20T11:00:30;101030.38;;;0.17;100.00
59170;BME280;52474;52.236;5.114;2022-11-20T11:03:00;101027.78;;;0.17;100.00
59170;BME280;52474;52.236;5.114;2022-11-20T11:05:41;101020.53;;;0.25;100.00
59170;BME280;52474;52.236;5.114;2022-11-20T11:08:17;100979.88;;;-0.01;100.00
59170;BME280;52474;52.236;5.114;2022-11-20T11:10:51;101025.13;;;0.40;100.00
59170;BME280;52474;52.236;5.114;2022-11-20T11:13:27;101028.44;;;0.44;100.00
59170;BME280;52474;52.236;5.114;2022-11-20T11:15:53;101016.63;;;0.57;100.00
59170;BME280;52474;52.236;5.114;2022-11-20T11:18:38;101015.47;;;0.64;100.00
59170;BME280;52474;52.236;5.114;2022-11-20T11:21:05;101003.66;;;0.76;100.00
59170;BME280;52474;52.236;5.114;2022-11-20T11:24:00;101000.41;;;0.71;100.00
59170;BME280;52474;52.236;5.114;2022-11-20T11:26:27;100988.88;;;0.77;100.00
59170;BME280;52474;52.236;5.114;2022-11-20T11:28:54;100985.34;;;0.78;100.00
59170;BME280;52474;52.236;5.114;2022-11-20T11:31:28;100979.03;;;0.83;100.00
59170;BME280;52474;52.236;5.114;2022-11-20T11:34:24;100969.69;;;0.98;100.00
59170;BME280;52474;52.236;5.114;2022-11-20T11:36:57;100972.72;;;0.89;100.00
59170;BME280;52474;52.236;5.114;2022-11-20T11:39:26;100969.63;;;1.00;100.00
59170;BME280;52474;52.236;5.114;2022-11-20T11:41:53;100960.38;;;0.93;100.00
59170;BME280;52474;52.236;5.114;2022-11-20T11:44:32;100952.41;;;0.96;100.00
59170;BME280;52474;52.236;5.114;2022-11-20T11:47:24;100955.91;;;0.96;100.00
59170;BME280;52474;52.236;5.114;2022-11-20T11:55:42;100943.13;;;0.90;100.00
59170;BME280;52474;52.236;5.114;2022-11-20T12:00:57;100926.00;;;0.84;100.00
59170;BME280;52474;52.236;5.114;2022-11-20T12:03:35;100930.06;;;0.90;100.00
59170;BME280;52474;52.236;5.114;2022-11-20T12:06:12;100906.66;;;0.89;100.00
59170;BME280;52474;52.236;5.114;2022-11-20T12:08:52;100925.94;;;1.05;100.00
59170;BME280;52474;52.236;5.114;2022-11-20T12:16:34;100907.34;;;0.94;100.00
59170;BME280;52474;52.236;5.114;2022-11-20T12:19:00;100916.69;;;0.98;100.00
59170;BME280;52474;52.236;5.114;2022-11-20T12:21:32;100896.25;;;0.89;100.00
59170;BME280;52474;52.236;5.114;2022-11-20T12:24:06;100906.91;;;1.03;100.00
59170;BME280;52474;52.236;5.114;2022-11-20T12:27:04;100898.53;;;1.15;100.00
59170;BME280;52474;52.236;5.114;2022-11-20T12:30:09;100893.06;;;1.21;100.00
59170;BME280;52474;52.236;5.114;2022-11-20T12:40:24;100881.84;;;1.19;100.00
59170;BME280;52474;52.236;5.114;2022-11-20T12:43:04;100854.41;;;1.11;100.00
59170;BME280;52474;52.236;5.114;2022-11-20T12:49:00;100837.91;;;1.10;100.00
59170;BME280;52474;52.236;5.114;2022-11-20T12:54:27;100813.50;;;1.30;100.00
59170;BME280;52474;52.236;5.114;2022-11-20T12:57:16;100815.88;;;1.54;100.00
59170;BME280;52474;52.236;5.114;2022-11-20T13:05:26;100806.16;;;1.38;100.00
59170;BME280;52474;52.236;5.114;2022-11-20T13:07:53;100793.50;;;1.31;100.00
59170;BME280;52474;52.236;5.114;2022-11-20T13:13:23;100818.31;;;1.20;100.00
59170;BME280;52474;52.236;5.114;2022-11-20T13:16:01;100813.31;;;1.16;100.00
59170;BME280;52474;52.236;5.114;2022-11-20T13:18:37;100809.56;;;1.21;100.00
59170;BME280;52474;52.236;5.114;2022-11-20T13:21:13;100810.25;;;1.25;100.00
59170;BME280;52474;52.236;5.114;2022-11-20T13:23:39;100803.56;;;1.19;100.00
59170;BME280;52474;52.236;5.114;2022-11-20T13:26:25;100805.88;;;1.25;100.00
59170;BME280;52474;52.236;5.114;2022-11-20T13:29:20;100804.06;;;1.27;100.00
59170;BME280;52474;52.236;5.114;2022-11-20T13:31:47;100804.97;;;1.26;100.00
59170;BME280;52474;52.236;5.114;2022-11-20T13:34:27;100816.56;;;1.21;100.00
59170;BME280;52474;52.236;5.114;2022-11-20T13:36:57;100806.88;;;1.23;100.00
59170;BME280;52474;52.236;5.114;2022-11-20T13:39:44;100767.69;;;1.05;100.00
59170;BME280;52474;52.236;5.114;2022-11-20T13:42:25;100771.06;;;1.26;100.00
59170;BME280;52474;52.236;5.114;2022-11-20T13:45:02;100757.78;;;1.14;100.00
59170;BME280;52474;52.236;5.114;2022-11-20T13:47:35;100775.66;;;1.21;100.00
59170;BME280;52474;52.236;5.114;2022-11-20T13:50:03;100767.06;;;1.19;100.00
59170;BME280;52474;52.236;5.114;2022-11-20T13:53:01;100761.63;;;1.24;100.00
59170;BME280;52474;52.236;5.114;2022-11-20T13:55:54;100737.69;;;1.16;100.00
59170;BME280;52474;52.236;5.114;2022-11-20T13:58:40;100733.38;;;1.15;100.00